createdAt,value
2022-11-24T00:01:44.132Z,8.23
2022-11-24T00:04:12.682Z,8.77
2022-11-24T00:06:40.558Z,8.57
2022-11-24T00:09:08.654Z,8.27
2022-11-24T00:11:37.785Z,8.90
2022-11-24T00:14:07.035Z,8.93
2022-11-24T00:16:37.540Z,9.13
2022-11-24T00:19:09.692Z,9.77
2022-11-24T00:21:39.291Z,8.63
2022-11-24T00:24:07.345Z,8.95
2022-11-24T00:26:40.157Z,8.20
2022-11-24T00:29:09.774Z,8.75
2022-11-24T00:31:42.945Z,7.88
2022-11-24T00:34:14.458Z,8.13
2022-11-24T00:36:43.286Z,8.20
2022-11-24T00:39:14.370Z,7.53
2022-11-24T00:41:42.783Z,7.60
2022-11-24T00:44:10.924Z,6.72
2022-11-24T00:46:39.604Z,6.90
2022-11-24T00:49:07.733Z,6.10
2022-11-24T00:51:54.667Z,5.90
2022-11-24T00:54:22.735Z,6.25
2022-11-24T00:56:51.564Z,6.95
2022-11-24T00:59:19.683Z,6.00
2022-11-24T01:01:47.655Z,5.88
2022-11-24T01:04:15.609Z,5.65
2022-11-24T01:06:43.922Z,5.55
2022-11-24T01:09:12.167Z,5.82
2022-11-24T01:12:12.560Z,4.78
2022-11-24T01:14:40.600Z,5.18
2022-11-24T01:17:08.702Z,5.00
2022-11-24T01:19:37.015Z,4.65
2022-11-24T01:22:05.158Z,4.25
2022-11-24T01:24:33.528Z,4.53
2022-11-24T01:27:01.927Z,4.60
2022-11-24T01:29:30.094Z,5.28
2022-11-24T01:31:58.101Z,4.60
2022-11-24T01:34:26.216Z,4.93
2022-11-24T01:36:56.066Z,4.22
2022-11-24T01:39:24.017Z,4.40
2022-11-24T01:41:53.189Z,5.18
2022-11-24T01:44:27.494Z,4.63
2022-11-24T01:47:06.217Z,3.72
2022-11-24T01:49:44.309Z,3.78
2022-11-24T01:52:38.181Z,3.92
2022-11-24T01:55:18.535Z,3.60
2022-11-24T01:58:16.030Z,4.10
2022-11-24T02:00:45.705Z,3.60
2022-11-24T02:03:18.970Z,2.83
2022-11-24T02:06:03.254Z,3.20
2022-11-24T02:08:55.296Z,3.53
2022-11-24T02:11:26.693Z,3.13
2022-11-24T02:13:58.030Z,2.80
2022-11-24T02:16:26.887Z,2.85
2022-11-24T02:18:54.926Z,2.75
2022-11-24T02:21:23.456Z,3.13
2022-11-24T02:24:12.371Z,2.72
2022-11-24T02:26:49.227Z,3.13
2022-11-24T02:29:17.498Z,2.92
2022-11-24T02:32:02.028Z,3.35
2022-11-24T02:34:30.324Z,3.60
2022-11-24T02:36:58.201Z,3.08
2022-11-24T02:39:26.249Z,3.28
2022-11-24T02:42:06.350Z,2.90
2022-11-24T02:44:44.330Z,3.72
2022-11-24T02:47:13.509Z,3.40
2022-11-24T02:49:41.609Z,2.88
2022-11-24T02:52:09.708Z,3.28
2022-11-24T02:54:37.839Z,3.75
2022-11-24T02:57:05.831Z,3.22
2022-11-24T02:59:33.914Z,3.17
2022-11-24T03:02:01.975Z,3.85
2022-11-24T03:04:29.890Z,3.60
2022-11-24T03:06:58.607Z,2.92
2022-11-24T03:09:27.049Z,3.20
2022-11-24T03:11:54.907Z,3.42
2022-11-24T03:14:23.377Z,3.50
2022-11-24T03:16:51.233Z,3.42
2022-11-24T03:19:19.147Z,3.45
2022-11-24T03:21:47.197Z,3.40
2022-11-24T03:24:15.169Z,3.05
2022-11-24T03:26:43.167Z,3.10
2022-11-24T03:29:11.661Z,3.40
2022-11-24T03:31:39.786Z,3.05
2022-11-24T03:34:08.043Z,3.10
2022-11-24T03:36:36.278Z,3.35
2022-11-24T03:39:04.559Z,3.38
2022-11-24T03:41:32.437Z,3.33
2022-11-24T03:44:00.622Z,3.35
2022-11-24T03:46:28.892Z,3.15
2022-11-24T03:48:57.253Z,3.78
2022-11-24T03:51:25.355Z,3.78
2022-11-24T03:53:53.441Z,2.85
2022-11-24T03:56:21.434Z,3.47
2022-11-24T03:58:49.451Z,3.28
2022-11-24T04:01:17.488Z,3.00
2022-11-24T04:03:45.487Z,2.88
2022-11-24T04:06:13.702Z,3.50
2022-11-24T04:08:41.705Z,3.33
2022-11-24T04:11:29.690Z,3.33
2022-11-24T04:13:57.843Z,3.33
2022-11-24T04:16:25.854Z,4.18
2022-11-24T04:18:54.211Z,3.63
2022-11-24T04:21:22.432Z,2.88
2022-11-24T04:23:50.352Z,3.40
2022-11-24T04:26:18.389Z,3.65
2022-11-24T04:28:46.476Z,3.30
2022-11-24T04:31:14.477Z,3.38
2022-11-24T04:33:42.643Z,2.97
2022-11-24T04:36:10.555Z,3.33
2022-11-24T04:39:26.037Z,3.20
2022-11-24T04:41:26.954Z,3.47
2022-11-24T04:43:57.164Z,3.33
2022-11-24T04:46:25.254Z,2.85
2022-11-24T04:48:53.271Z,3.28
2022-11-24T04:51:21.218Z,2.72
2022-11-24T04:53:49.584Z,3.40
2022-11-24T04:56:17.686Z,3.00
2022-11-24T04:58:49.337Z,2.92
2022-11-24T05:01:17.338Z,3.28
2022-11-24T05:03:45.884Z,3.30
2022-11-24T05:06:13.884Z,3.78
2022-11-24T05:08:41.830Z,2.78
2022-11-24T05:11:10.007Z,3.30
2022-11-24T05:13:37.965Z,3.28
2022-11-24T05:16:06.135Z,3.13
2022-11-24T05:18:34.689Z,3.67
2022-11-24T05:21:02.521Z,3.10
2022-11-24T05:23:31.147Z,3.60
2022-11-24T05:26:02.879Z,2.92
2022-11-24T05:31:01.378Z,3.45
2022-11-24T05:33:32.840Z,3.17
2022-11-24T05:36:03.920Z,3.10
2022-11-24T05:38:32.876Z,2.85
2022-11-24T05:41:07.173Z,3.38
2022-11-24T05:43:35.402Z,3.10
2022-11-24T05:46:03.376Z,3.22
2022-11-24T05:48:31.558Z,3.83
2022-11-24T05:50:59.675Z,3.55
2022-11-24T05:53:27.707Z,3.25
2022-11-24T05:55:55.804Z,3.15
2022-11-24T05:58:23.819Z,3.08
2022-11-24T06:00:51.641Z,3.17
2022-11-24T06:03:19.578Z,3.13
2022-11-24T06:05:48.269Z,3.42
2022-11-24T06:08:16.180Z,3.10
2022-11-24T06:10:44.126Z,3.20
2022-11-24T06:13:14.780Z,3.97
2022-11-24T06:15:43.000Z,3.53
2022-11-24T06:18:10.845Z,3.40
2022-11-24T06:20:38.803Z,3.05
2022-11-24T06:23:06.614Z,4.25
2022-11-24T06:25:35.294Z,3.72
2022-11-24T06:28:05.300Z,3.28
2022-11-24T06:30:33.222Z,3.30
2022-11-24T06:33:01.505Z,3.67
2022-11-24T06:35:29.453Z,3.58
2022-11-24T06:37:57.434Z,3.40
2022-11-24T06:40:25.270Z,3.70
2022-11-24T06:42:53.372Z,3.30
2022-11-24T06:45:21.187Z,4.10
2022-11-24T06:47:49.275Z,3.78
2022-11-24T06:50:17.348Z,4.18
2022-11-24T06:52:45.271Z,4.18
2022-11-24T06:55:13.295Z,3.80
2022-11-24T06:57:41.295Z,4.43
2022-11-24T07:00:10.731Z,4.00
2022-11-24T07:02:44.157Z,4.40
2022-11-24T07:05:13.968Z,3.97
2022-11-24T07:07:42.059Z,3.78
2022-11-24T07:10:10.229Z,4.30
2022-11-24T07:12:38.262Z,4.75
2022-11-24T07:15:07.697Z,4.75
2022-11-24T07:17:40.843Z,4.22
2022-11-24T07:20:10.792Z,4.20
2022-11-24T07:22:39.148Z,4.47
2022-11-24T07:25:09.850Z,4.38
2022-11-24T07:27:38.233Z,4.30
2022-11-24T07:30:08.351Z,3.95
2022-11-24T07:32:36.377Z,4.47
2022-11-24T07:35:04.909Z,3.80
2022-11-24T07:37:32.965Z,4.15
2022-11-24T07:40:00.737Z,3.88
2022-11-24T07:42:28.848Z,4.15
2022-11-24T07:44:57.182Z,4.15
2022-11-24T07:47:25.240Z,3.85
2022-11-24T07:49:53.223Z,4.35
2022-11-24T07:52:21.238Z,4.07
2022-11-24T07:54:49.354Z,4.45
2022-11-24T07:57:17.454Z,4.60
2022-11-24T07:59:45.453Z,4.70
2022-11-24T08:02:13.867Z,4.47
2022-11-24T08:04:41.987Z,4.35
2022-11-24T08:07:10.009Z,4.35
2022-11-24T08:09:37.868Z,4.38
2022-11-24T08:12:06.735Z,4.72
2022-11-24T08:14:34.977Z,5.03
2022-11-24T08:17:03.030Z,4.72
2022-11-24T08:19:32.473Z,4.75
2022-11-24T08:22:00.870Z,4.30
2022-11-24T08:24:28.829Z,5.18
2022-11-24T08:26:57.323Z,4.55
2022-11-24T08:29:31.669Z,5.00
2022-11-24T08:32:01.937Z,4.43
2022-11-24T08:34:30.174Z,4.20
2022-11-24T08:36:57.962Z,3.92
2022-11-24T08:39:25.986Z,4.70
2022-11-24T08:41:53.981Z,4.18
2022-11-24T08:44:21.781Z,4.47
2022-11-24T08:46:50.297Z,3.90
2022-11-24T08:49:19.103Z,9.80
2022-11-24T08:51:48.683Z,4.60
2022-11-24T08:54:19.088Z,5.05
2022-11-24T08:56:49.672Z,4.43
2022-11-24T08:59:17.666Z,4.30
2022-11-24T09:01:45.937Z,4.65
2022-11-24T09:04:13.884Z,3.90
2022-11-24T09:06:41.865Z,3.75
2022-11-24T09:09:11.212Z,3.53
2022-11-24T09:11:39.484Z,3.60
2022-11-24T09:14:07.570Z,3.47
2022-11-24T09:16:35.796Z,3.60
2022-11-24T09:19:06.190Z,3.20
2022-11-24T09:21:38.034Z,3.13
2022-11-24T09:24:07.898Z,4.13
2022-11-24T09:26:43.131Z,3.47
2022-11-24T09:29:14.456Z,3.42
2022-11-24T09:31:42.468Z,4.05
2022-11-24T09:34:15.663Z,3.83
2022-11-24T09:36:43.948Z,4.55
2022-11-24T09:39:12.328Z,3.88
2022-11-24T09:42:08.482Z,4.57
2022-11-24T09:45:41.629Z,4.95
2022-11-24T09:48:14.599Z,4.47
2022-11-24T09:50:46.480Z,4.60
2022-11-24T09:55:58.249Z,5.03
2022-11-24T09:58:35.775Z,4.15
2022-11-24T10:01:20.896Z,5.30
2022-11-24T10:03:53.574Z,4.15
2022-11-24T10:06:34.946Z,4.15
2022-11-24T10:09:53.568Z,3.50
2022-11-24T10:13:24.122Z,3.70
2022-11-24T10:16:27.822Z,3.90
2022-11-24T10:19:37.380Z,4.03
2022-11-24T10:22:33.933Z,4.25
2022-11-24T10:25:12.509Z,3.55
2022-11-24T10:28:12.722Z,3.35
2022-11-24T10:30:40.936Z,3.80
2022-11-24T10:33:28.748Z,4.10
2022-11-24T10:36:10.531Z,3.97
2022-11-24T10:38:59.406Z,3.85
2022-11-24T10:41:46.660Z,3.40
2022-11-24T10:44:15.706Z,3.88
2022-11-24T10:46:44.323Z,3.55
2022-11-24T10:49:28.699Z,3.72
2022-11-24T10:52:11.818Z,4.03
2022-11-24T10:54:55.998Z,3.80
2022-11-24T10:57:34.292Z,4.30
2022-11-24T11:00:28.103Z,4.45
2022-11-24T11:03:51.902Z,4.28
2022-11-24T11:06:28.979Z,4.35
2022-11-24T11:09:09.201Z,4.10
2022-11-24T11:11:40.300Z,4.28
2022-11-24T11:14:11.206Z,3.60
2022-11-24T11:16:52.954Z,3.47
2022-11-24T11:20:00.296Z,3.95
2022-11-24T11:22:31.765Z,3.83
2022-11-24T11:25:08.358Z,4.13
2022-11-24T11:27:37.550Z,3.88
2022-11-24T11:36:18.807Z,5.03
2022-11-24T11:38:48.522Z,4.15
2022-11-24T11:41:31.302Z,4.25
2022-11-24T11:44:27.012Z,3.78
2022-11-24T11:46:58.761Z,4.10
2022-11-24T11:49:26.976Z,4.18
2022-11-24T11:52:23.905Z,4.40
2022-11-24T11:55:13.565Z,4.57
2022-11-24T11:57:54.128Z,4.47
2022-11-24T12:00:22.688Z,5.23
2022-11-24T12:03:34.724Z,6.72
2022-11-24T12:06:55.985Z,6.88
2022-11-24T12:09:41.621Z,6.68
2022-11-24T12:12:57.904Z,7.25
2022-11-24T12:15:51.953Z,6.93
2022-11-24T12:18:58.621Z,6.00
2022-11-24T12:21:58.065Z,6.25
2022-11-24T12:24:57.461Z,6.30
2022-11-24T12:28:03.580Z,6.25
2022-11-24T12:31:03.900Z,6.68
2022-11-24T12:34:08.312Z,6.07
2022-11-24T12:37:12.082Z,7.18
2022-11-24T12:39:54.163Z,7.43
2022-11-24T12:42:49.445Z,7.63
2022-11-24T12:45:28.756Z,7.28
2022-11-24T12:48:28.196Z,7.43
2022-11-24T12:51:00.377Z,7.82
2022-11-24T12:53:35.044Z,9.02
2022-11-24T12:56:14.361Z,9.10
2022-11-24T12:58:55.775Z,8.93
2022-11-24T13:01:39.415Z,8.87
2022-11-24T13:04:41.216Z,9.73
2022-11-24T13:07:27.299Z,10.00
2022-11-24T13:10:56.146Z,9.88
2022-11-24T13:13:49.672Z,12.43
2022-11-24T13:16:35.884Z,9.93
2022-11-24T13:19:15.132Z,11.68
2022-11-24T13:21:43.089Z,11.20
2022-11-24T13:24:17.494Z,9.50
2022-11-24T13:26:49.490Z,11.15
2022-11-24T13:29:39.010Z,13.32
2022-11-24T13:32:06.977Z,11.35
2022-11-24T13:34:46.038Z,11.90
2022-11-24T13:37:39.827Z,13.10
2022-11-24T13:40:13.914Z,13.00
2022-11-24T13:43:02.859Z,12.50
2022-11-24T13:45:40.796Z,13.02
2022-11-24T13:48:21.690Z,13.07
2022-11-24T13:50:50.168Z,12.63
2022-11-24T13:53:45.793Z,12.13
2022-11-24T13:56:14.323Z,15.90
2022-11-24T13:58:58.462Z,12.90
2022-11-24T14:01:31.016Z,12.93
2022-11-24T14:04:36.293Z,11.57
2022-11-24T14:07:12.506Z,13.25
2022-11-24T14:09:48.257Z,12.85
2022-11-24T14:12:25.425Z,12.52
2022-11-24T14:14:57.401Z,12.73
2022-11-24T14:17:29.307Z,13.05
2022-11-24T14:20:16.139Z,17.83
2022-11-24T14:22:44.948Z,18.35
2022-11-24T14:25:31.166Z,23.27
2022-11-24T14:28:00.849Z,22.90
2022-11-24T14:30:32.157Z,20.45
2022-11-24T14:33:03.724Z,19.25
2022-11-24T14:35:34.328Z,18.88
2022-11-24T14:38:05.273Z,17.43
2022-11-24T14:40:44.011Z,15.65
2022-11-24T14:43:33.287Z,14.50
2022-11-24T14:46:09.899Z,14.20
2022-11-24T14:48:46.967Z,15.50
2022-11-24T14:51:28.820Z,14.25
2022-11-24T14:56:40.131Z,11.27
2022-11-24T14:59:26.693Z,12.00
2022-11-24T15:01:56.937Z,11.07
2022-11-24T15:05:00.869Z,12.05
2022-11-24T15:07:29.703Z,12.48
2022-11-24T15:10:00.967Z,12.90
2022-11-24T15:12:34.403Z,12.38
2022-11-24T15:15:23.183Z,11.82
2022-11-24T15:17:58.036Z,12.23
2022-11-24T15:20:42.152Z,11.00
2022-11-24T15:23:28.487Z,11.77
2022-11-24T15:25:58.302Z,12.45
2022-11-24T15:28:26.396Z,12.95
2022-11-24T15:30:59.588Z,12.82
2022-11-24T15:33:28.805Z,13.20
2022-11-24T15:35:57.558Z,13.65
2022-11-24T15:38:26.091Z,12.65
2022-11-24T15:40:56.897Z,12.57
2022-11-24T15:43:36.517Z,11.57
2022-11-24T15:46:05.578Z,11.35
2022-11-24T15:48:33.587Z,10.38
2022-11-24T15:51:04.971Z,10.38
2022-11-24T15:53:37.833Z,9.63
2022-11-24T15:56:12.596Z,10.95
2022-11-24T15:58:40.627Z,11.38
2022-11-24T16:01:08.535Z,10.93
2022-11-24T16:03:47.111Z,11.55
2022-11-24T16:06:24.619Z,11.25
2022-11-24T16:08:54.248Z,11.23
2022-11-24T16:11:23.241Z,11.88
2022-11-24T16:13:53.755Z,12.68
2022-11-24T16:16:25.028Z,13.00
2022-11-24T16:18:53.337Z,12.60
2022-11-24T16:21:21.452Z,13.98
2022-11-24T16:23:50.342Z,13.45
2022-11-24T16:26:18.272Z,13.55
2022-11-24T16:28:46.300Z,13.77
2022-11-24T16:31:16.411Z,14.65
2022-11-24T16:33:46.614Z,14.30
2022-11-24T16:36:15.475Z,14.60
2022-11-24T16:38:44.075Z,14.70
2022-11-24T16:41:12.664Z,14.20
2022-11-24T16:43:40.613Z,13.25
2022-11-24T16:46:16.323Z,13.52
2022-11-24T16:48:46.718Z,13.80
2022-11-24T16:51:15.708Z,13.45
2022-11-24T16:53:44.081Z,13.65
2022-11-24T16:56:12.267Z,14.32
2022-11-24T16:58:42.167Z,14.30
2022-11-24T17:01:14.478Z,13.70
2022-11-24T17:03:42.958Z,13.07
2022-11-24T17:06:16.396Z,13.57
2022-11-24T17:08:46.692Z,13.82
2022-11-24T17:11:20.446Z,13.77
2022-11-24T17:13:51.847Z,13.63
2022-11-24T17:16:25.030Z,13.07
2022-11-24T17:18:54.038Z,14.30
2022-11-24T17:21:26.051Z,14.27
2022-11-24T17:24:00.536Z,13.77
2022-11-24T17:26:29.270Z,14.90
2022-11-24T17:28:57.915Z,14.15
2022-11-24T17:31:28.709Z,13.40
2022-11-24T17:33:59.758Z,13.90
2022-11-24T17:36:29.640Z,13.30
2022-11-24T17:39:01.083Z,12.82
2022-11-24T17:41:29.081Z,12.80
2022-11-24T17:43:57.515Z,14.25
2022-11-24T17:46:27.452Z,12.20
2022-11-24T17:48:56.729Z,13.02
2022-11-24T17:51:26.986Z,11.98
2022-11-24T17:53:57.500Z,13.60
2022-11-24T17:56:27.825Z,12.60
2022-11-24T17:58:59.310Z,13.48
2022-11-24T18:01:31.670Z,14.70
2022-11-24T18:04:00.008Z,15.05
2022-11-24T18:06:29.102Z,15.85
2022-11-24T18:08:58.557Z,16.92
2022-11-24T18:11:32.216Z,18.95
2022-11-24T18:14:03.969Z,19.25
2022-11-24T18:16:34.857Z,18.85
2022-11-24T18:19:09.945Z,18.85
2022-11-24T18:21:43.969Z,19.25
2022-11-24T18:24:13.288Z,20.35
2022-11-24T18:26:42.637Z,19.15
2022-11-24T18:29:12.175Z,19.90
2022-11-24T18:31:40.425Z,23.67
2022-11-24T18:34:08.969Z,18.02
2022-11-24T18:36:37.476Z,22.80
2022-11-24T18:39:07.899Z,19.92
2022-11-24T18:41:36.012Z,35.28
2022-11-24T18:44:08.218Z,22.83
2022-11-24T18:46:37.769Z,33.40
2022-11-24T18:49:07.372Z,19.83
2022-11-24T18:51:35.995Z,20.27
2022-11-24T18:54:05.955Z,22.58
2022-11-24T18:56:34.375Z,21.05
2022-11-24T18:59:02.567Z,19.17
2022-11-24T19:01:32.670Z,18.02
2022-11-24T19:04:03.239Z,34.53
2022-11-24T19:06:36.058Z,19.02
2022-11-24T19:09:18.844Z,19.38
2022-11-24T19:11:47.817Z,18.15
2022-11-24T19:14:18.103Z,19.98
2022-11-24T19:16:48.396Z,15.90
2022-11-24T19:19:17.463Z,15.68
2022-11-24T19:21:45.540Z,16.88
2022-11-24T19:24:13.893Z,16.13
2022-11-24T19:26:42.156Z,17.50
2022-11-24T19:29:10.081Z,21.73
2022-11-24T19:31:39.984Z,22.85
2022-11-24T19:34:08.366Z,18.25
2022-11-24T19:36:36.706Z,19.38
2022-11-24T19:39:05.598Z,19.58
2022-11-24T19:41:34.521Z,21.42
2022-11-24T19:44:02.659Z,20.05
2022-11-24T19:46:31.690Z,20.00
2022-11-24T19:49:02.112Z,19.10
2022-11-24T19:51:38.634Z,20.67
2022-11-24T19:54:10.493Z,19.27
2022-11-24T19:56:38.609Z,13.73
2022-11-24T19:59:08.241Z,20.40
2022-11-24T20:01:40.067Z,18.92
2022-11-24T20:04:12.571Z,18.48
2022-11-24T20:06:44.680Z,16.80
2022-11-24T20:09:18.222Z,20.02
2022-11-24T20:11:48.732Z,23.10
2022-11-24T20:14:19.605Z,21.67
2022-11-24T20:16:48.258Z,20.20
2022-11-24T20:19:18.517Z,20.33
2022-11-24T20:21:50.297Z,21.23
2022-11-24T20:26:58.895Z,23.23
2022-11-24T20:29:29.325Z,16.55
2022-11-24T20:31:57.752Z,18.98
2022-11-24T20:34:27.260Z,22.00
2022-11-24T20:36:58.381Z,20.75
2022-11-24T20:39:28.542Z,22.67
2022-11-24T20:41:59.853Z,22.27
2022-11-24T20:44:30.061Z,21.38
2022-11-24T20:47:00.322Z,24.05
2022-11-24T20:49:28.804Z,23.27
2022-11-24T20:51:57.691Z,23.92
2022-11-24T20:54:28.283Z,17.40
2022-11-24T20:56:56.547Z,23.08
2022-11-24T20:59:25.976Z,17.00
2022-11-24T21:01:59.338Z,23.17
2022-11-24T21:04:28.179Z,19.63
2022-11-24T21:06:57.146Z,23.75
2022-11-24T21:09:27.249Z,21.40
2022-11-24T21:11:55.868Z,22.83
2022-11-24T21:14:24.697Z,21.00
2022-11-24T21:16:52.883Z,19.80
2022-11-24T21:19:21.445Z,16.77
2022-11-24T21:21:50.126Z,17.95
2022-11-24T21:24:22.130Z,20.73
2022-11-24T21:26:51.866Z,19.10
2022-11-24T21:29:23.820Z,17.67
2022-11-24T21:31:52.414Z,16.63
2022-11-24T21:34:20.957Z,16.50
2022-11-24T21:36:49.792Z,15.93
2022-11-24T21:39:18.824Z,18.95
2022-11-24T21:41:47.697Z,18.52
2022-11-24T21:44:16.292Z,18.50
2022-11-24T21:46:49.511Z,19.75
2022-11-24T21:49:20.540Z,20.45
2022-11-24T21:51:55.827Z,17.20
2022-11-24T21:54:24.695Z,17.65
2022-11-24T21:56:54.172Z,16.60
2022-11-24T21:59:22.973Z,18.48
2022-11-24T22:01:51.337Z,16.30
2022-11-24T22:04:19.418Z,16.40
2022-11-24T22:06:47.371Z,17.52
2022-11-24T22:09:18.159Z,16.77
2022-11-24T22:11:49.514Z,17.00
2022-11-24T22:14:17.722Z,15.43
2022-11-24T22:16:46.153Z,16.02
2022-11-24T22:19:15.655Z,13.77
2022-11-24T22:21:43.928Z,16.55
2022-11-24T22:24:12.147Z,14.95
2022-11-24T22:26:40.087Z,16.10
2022-11-24T22:29:08.601Z,15.60
2022-11-24T22:31:37.596Z,15.73
2022-11-24T22:34:06.086Z,16.10
2022-11-24T22:36:35.354Z,12.23
2022-11-24T22:39:06.540Z,15.00
2022-11-24T22:41:36.047Z,14.38
2022-11-24T22:44:05.806Z,13.23
2022-11-24T22:46:34.098Z,14.38
2022-11-24T22:49:02.339Z,14.95
2022-11-24T22:51:34.324Z,14.65
2022-11-24T22:54:05.152Z,14.77
2022-11-24T22:56:34.133Z,14.00
2022-11-24T22:59:03.608Z,15.93
2022-11-24T23:01:33.921Z,15.52
2022-11-24T23:04:02.551Z,15.10
2022-11-24T23:06:33.079Z,14.00
2022-11-24T23:09:03.221Z,16.33
2022-11-24T23:11:38.232Z,15.20
2022-11-24T23:14:13.471Z,17.17
2022-11-24T23:16:42.571Z,15.43
2022-11-24T23:19:11.075Z,15.75
2022-11-24T23:21:39.235Z,17.83
2022-11-24T23:24:08.640Z,15.45
2022-11-24T23:26:40.367Z,17.02
2022-11-24T23:31:40.052Z,16.45
2022-11-24T23:34:08.610Z,15.37
2022-11-24T23:36:36.400Z,16.10
2022-11-24T23:39:12.319Z,15.15
2022-11-24T23:41:40.775Z,15.38
2022-11-24T23:44:08.741Z,15.57
2022-11-24T23:46:37.056Z,14.38
2022-11-24T23:49:04.861Z,16.50
2022-11-24T23:51:34.271Z,13.88
2022-11-24T23:54:02.404Z,15.45
2022-11-24T23:56:33.245Z,14.50
2022-11-24T23:59:04.149Z,13.82
